Time;durP1;ratioP1;P1;durP2;ratioP2;P2;SDS_P1;SDS_P2;PMS_P1;PMS_P2;Temp;Humidity;BMP_temperature;BMP_pressure;BME280_temperature;BME280_humidity;BME280_pressure;Samples;Min_cycle;Max_cycle;Signal;HPM_P1;HPM_P2
2021/08/17 00:02:24;;;;;;;2.38;1.52;;;21.30;76.00;;;;;;5062909;28;20428;-60
2021/08/17 00:04:50;;;;;;;2.25;1.60;;;21.20;76.00;;;;;;5042032;28;20516;-60
2021/08/17 00:07:16;;;;;;;6.82;1.75;;;21.20;76.10;;;;;;5041494;28;20036;-60
2021/08/17 00:09:42;;;;;;;3.67;2.13;;;21.20;76.10;;;;;;5065267;28;20086;-60
2021/08/17 00:12:07;;;;;;;3.50;1.70;;;21.20;76.20;;;;;;5045146;28;20667;-60
2021/08/17 00:14:33;;;;;;;2.85;2.00;;;21.20;76.20;;;;;;5057822;28;20089;-60
2021/08/17 00:16:58;;;;;;;3.53;2.05;;;21.10;76.20;;;;;;5060997;28;20136;-60
2021/08/17 00:19:27;;;;;;;5.07;1.70;;;21.10;76.20;;;;;;5064697;28;20387;-63
2021/08/17 00:21:53;;;;;;;2.55;1.92;;;21.10;76.30;;;;;;5012976;28;20024;-60
2021/08/17 00:24:18;;;;;;;3.35;2.40;;;21.10;76.20;;;;;;5046347;28;20035;-60
2021/08/17 00:26:44;;;;;;;6.18;2.75;;;21.10;76.30;;;;;;5038957;28;20059;-60
2021/08/17 00:29:09;;;;;;;3.15;2.55;;;21.10;76.40;;;;;;5025775;28;20601;-61
2021/08/17 00:31:35;;;;;;;3.60;2.88;;;21.00;76.30;;;;;;5060867;28;20160;-60
2021/08/17 00:34:00;;;;;;;5.85;2.90;;;21.00;76.30;;;;;;5060275;28;20476;-60
2021/08/17 00:36:29;;;;;;;3.47;2.35;;;21.00;76.30;;;;;;5043968;28;20155;-60
2021/08/17 00:38:54;;;;;;;3.38;2.70;;;21.00;76.30;;;;;;5044781;28;20020;-60
2021/08/17 00:41:20;;;;;;;4.35;3.22;;;21.00;76.30;;;;;;5063937;28;20044;-60
2021/08/17 00:43:45;;;;;;;6.93;3.85;;;21.00;76.40;;;;;;5059980;28;20029;-60
2021/08/17 00:46:11;;;;;;;6.43;3.83;;;21.00;76.40;;;;;;5043699;28;20032;-61
2021/08/17 00:48:37;;;;;;;4.28;3.88;;;20.90;76.30;;;;;;5058606;28;20036;-60
2021/08/17 00:51:04;;;;;;;4.43;3.45;;;20.90;76.50;;;;;;5059425;28;20021;-60
2021/08/17 00:53:31;;;;;;;4.40;3.72;;;20.90;76.50;;;;;;5041961;28;20040;-60
2021/08/17 00:55:56;;;;;;;5.47;3.80;;;20.90;76.50;;;;;;5040328;28;20112;-60
2021/08/17 00:58:22;;;;;;;5.07;4.03;;;20.80;76.40;;;;;;5061925;28;20171;-60
2021/08/17 01:00:48;;;;;;;6.53;4.28;;;20.80;76.40;;;;;;5043349;28;20445;-60
2021/08/17 01:03:13;;;;;;;5.57;4.22;;;20.80;76.50;;;;;;5039534;28;20455;-60
2021/08/17 01:05:39;;;;;;;7.05;5.22;;;20.80;76.60;;;;;;5037715;28;20439;-60
2021/08/17 01:08:06;;;;;;;7.70;5.20;;;20.80;76.50;;;;;;5060253;28;20056;-61
2021/08/17 01:10:32;;;;;;;6.05;5.38;;;20.80;76.50;;;;;;5030619;28;20094;-60
2021/08/17 01:12:58;;;;;;;8.23;5.03;;;20.70;76.50;;;;;;5041987;28;20025;-60
2021/08/17 01:15:23;;;;;;;7.20;5.65;;;20.70;76.50;;;;;;5035453;28;20044;-60
2021/08/17 01:17:49;;;;;;;5.70;5.00;;;20.70;76.60;;;;;;5066235;28;20044;-60
2021/08/17 01:20:15;;;;;;;9.40;5.60;;;20.70;76.60;;;;;;5038995;28;20389;-60
2021/08/17 01:22:41;;;;;;;8.57;5.60;;;20.70;76.70;;;;;;5024494;28;20024;-60
2021/08/17 01:25:08;;;;;;;6.63;5.30;;;20.70;76.80;;;;;;5028552;28;20027;-60
2021/08/17 01:27:33;;;;;;;8.02;5.78;;;20.70;76.80;;;;;;5064544;28;20035;-60
2021/08/17 01:29:59;;;;;;;8.35;6.20;;;20.60;76.80;;;;;;5047780;28;20038;-60
2021/08/17 01:32:24;;;;;;;7.45;6.10;;;20.60;76.90;;;;;;5059380;28;20108;-60
2021/08/17 01:34:51;;;;;;;8.77;6.45;;;20.60;76.90;;;;;;5039433;28;20383;-60
2021/08/17 01:37:16;;;;;;;7.45;6.28;;;20.60;77.00;;;;;;5061254;28;20025;-60
2021/08/17 01:39:42;;;;;;;7.32;6.63;;;20.60;77.00;;;;;;5039895;28;20138;-60
2021/08/17 01:42:07;;;;;;;8.93;6.93;;;20.60;77.10;;;;;;5045093;28;20024;-60
2021/08/17 01:44:33;;;;;;;7.68;6.50;;;20.50;77.20;;;;;;5058738;28;20024;-60
2021/08/17 01:46:59;;;;;;;7.97;6.55;;;20.50;77.20;;;;;;5060667;28;20552;-60
2021/08/17 01:49:25;;;;;;;8.90;7.53;;;20.50;77.30;;;;;;5039710;28;20066;-60
2021/08/17 01:51:50;;;;;;;9.38;6.53;;;20.50;77.40;;;;;;5045947;28;20036;-60
2021/08/17 01:54:17;;;;;;;8.93;7.03;;;20.50;77.40;;;;;;5060623;28;20036;-60
2021/08/17 01:56:43;;;;;;;8.10;7.28;;;20.50;78.10;;;;;;5026922;28;20033;-60
2021/08/17 01:59:12;;;;;;;10.63;8.27;;;20.50;77.50;;;;;;5038481;28;20040;-60
2021/08/17 02:01:38;;;;;;;9.82;7.72;;;20.50;77.50;;;;;;5042569;28;20017;-61
2021/08/17 02:04:03;;;;;;;10.20;8.15;;;20.40;77.40;;;;;;5056927;28;21121;-61
2021/08/17 02:06:29;;;;;;;10.05;8.13;;;20.40;77.50;;;;;;5026656;28;20379;-60
2021/08/17 02:08:54;;;;;;;11.48;7.93;;;20.40;77.60;;;;;;5057591;28;20111;-60
2021/08/17 02:11:20;;;;;;;12.40;8.75;;;20.40;77.60;;;;;;5043159;28;20037;-60
2021/08/17 02:13:45;;;;;;;9.88;7.90;;;20.40;77.70;;;;;;5040881;28;20056;-60
2021/08/17 02:16:11;;;;;;;9.95;8.50;;;20.40;77.80;;;;;;5043575;28;20032;-60
2021/08/17 02:18:36;;;;;;;11.65;8.93;;;20.30;77.70;;;;;;5061583;28;20024;-60
2021/08/17 02:21:02;;;;;;;9.38;8.48;;;20.40;77.80;;;;;;5054374;28;20035;-60
2021/08/17 02:23:28;;;;;;;10.80;9.10;;;20.30;78.00;;;;;;5050050;28;20017;-60
2021/08/17 02:25:54;;;;;;;12.20;9.18;;;20.30;77.90;;;;;;5035645;28;20053;-60
2021/08/17 02:28:20;;;;;;;12.23;9.55;;;20.30;78.00;;;;;;5066172;28;20107;-60
2021/08/17 02:30:47;;;;;;;9.80;8.80;;;20.30;77.90;;;;;;5048123;28;20119;-60
2021/08/17 02:33:12;;;;;;;14.00;9.68;;;20.20;78.00;;;;;;5059342;28;21012;-61
2021/08/17 02:35:38;;;;;;;12.95;9.85;;;20.20;78.00;;;;;;5051377;28;20531;-60
2021/08/17 02:38:05;;;;;;;11.18;9.43;;;20.20;78.10;;;;;;5048637;28;20076;-60
2021/08/17 02:40:31;;;;;;;10.73;9.60;;;20.20;78.10;;;;;;5066259;28;20019;-60
2021/08/17 02:42:56;;;;;;;11.50;10.23;;;20.20;78.00;;;;;;5031945;28;20029;-60
2021/08/17 02:45:22;;;;;;;13.15;9.88;;;20.20;78.10;;;;;;5047734;28;20025;-60
2021/08/17 02:47:47;;;;;;;12.15;10.52;;;20.20;78.10;;;;;;5064815;28;20029;-60
2021/08/17 02:50:13;;;;;;;14.77;10.77;;;20.20;78.10;;;;;;5043611;28;20127;-60
2021/08/17 02:52:38;;;;;;;12.18;10.60;;;20.20;78.00;;;;;;5045577;28;20048;-60
2021/08/17 02:55:06;;;;;;;13.68;10.80;;;20.20;78.00;;;;;;5044456;28;20028;-60
2021/08/17 02:57:31;;;;;;;12.60;10.73;;;20.20;77.90;;;;;;5064918;28;20040;-59
2021/08/17 02:59:57;;;;;;;13.07;10.95;;;20.20;77.90;;;;;;5013330;28;20051;-60
2021/08/17 03:02:22;;;;;;;14.93;11.40;;;20.20;77.90;;;;;;5063329;28;20067;-61
2021/08/17 03:04:48;;;;;;;17.55;11.50;;;20.20;77.90;;;;;;5044643;28;20040;-61
2021/08/17 03:07:13;;;;;;;15.52;12.00;;;20.20;77.90;;;;;;5070268;28;20639;-63
2021/08/17 03:09:39;;;;;;;14.27;11.98;;;20.20;77.90;;;;;;5043537;28;20129;-61
2021/08/17 03:12:04;;;;;;;15.63;11.75;;;20.20;77.90;;;;;;5052144;28;20078;-60
2021/08/17 03:14:30;;;;;;;18.67;13.43;;;20.10;78.60;;;;;;5065378;28;20032;-60
2021/08/17 03:16:55;;;;;;;16.30;13.20;;;20.10;78.00;;;;;;5062204;28;20047;-60
2021/08/17 03:19:22;;;;;;;17.67;12.63;;;20.10;78.00;;;;;;5043913;28;20044;-60
2021/08/17 03:21:48;;;;;;;16.45;13.13;;;20.10;78.00;;;;;;5063578;28;20037;-60
2021/08/17 03:24:13;;;;;;;16.08;12.43;;;20.10;78.10;;;;;;5046035;28;20448;-60
2021/08/17 03:26:39;;;;;;;15.77;12.55;;;20.00;78.10;;;;;;5061566;28;20115;-60
2021/08/17 03:29:04;;;;;;;15.65;13.13;;;20.00;78.20;;;;;;5060806;28;20490;-60
2021/08/17 03:31:30;;;;;;;17.17;12.45;;;20.00;78.20;;;;;;5067068;28;20515;-60
2021/08/17 03:33:55;;;;;;;19.23;13.10;;;20.00;78.30;;;;;;5029871;28;20280;-60
2021/08/17 03:36:21;;;;;;;13.82;12.40;;;20.00;78.30;;;;;;5049730;28;20478;-60
2021/08/17 03:38:46;;;;;;;18.08;12.52;;;20.00;78.30;;;;;;5061209;28;20303;-60
2021/08/17 03:41:12;;;;;;;112.38;21.30;;;19.90;78.40;;;;;;5069114;28;20036;-60
2021/08/17 03:43:38;;;;;;;61.08;17.15;;;20.00;78.50;;;;;;5030199;28;20051;-60
2021/08/17 03:46:05;;;;;;;114.60;21.00;;;19.90;78.50;;;;;;5043252;28;20036;-60
2021/08/17 03:48:31;;;;;;;121.22;21.25;;;19.90;78.50;;;;;;5041743;28;20094;-60
2021/08/17 03:50:56;;;;;;;109.85;20.45;;;19.90;78.50;;;;;;5044823;28;20028;-60
2021/08/17 03:53:22;;;;;;;118.00;20.73;;;19.80;78.50;;;;;;5029705;28;20027;-61
2021/08/17 03:55:47;;;;;;;107.00;21.65;;;19.80;78.60;;;;;;5046063;28;20076;-60
2021/08/17 03:58:13;;;;;;;95.35;20.10;;;19.90;78.60;;;;;;5061635;28;20108;-60
2021/08/17 04:00:38;;;;;;;79.95;18.35;;;19.80;78.50;;;;;;5062460;28;20537;-60
2021/08/17 04:03:04;;;;;;;72.45;18.02;;;19.80;78.60;;;;;;5015707;28;20915;-60
2021/08/17 04:05:29;;;;;;;89.38;18.27;;;19.80;78.60;;;;;;5069754;28;20024;-60
2021/08/17 04:07:55;;;;;;;95.25;18.02;;;19.80;78.80;;;;;;5044531;28;20469;-60
2021/08/17 04:10:21;;;;;;;89.45;19.52;;;19.80;78.80;;;;;;5063953;28;20456;-60
2021/08/17 04:12:46;;;;;;;92.68;18.95;;;19.80;78.90;;;;;;5046674;28;20382;-60
2021/08/17 04:15:12;;;;;;;116.13;20.67;;;19.80;79.00;;;;;;5066071;28;20027;-60
2021/08/17 04:17:37;;;;;;;116.38;20.58;;;19.80;79.00;;;;;;5038161;28;20514;-60
2021/08/17 04:20:04;;;;;;;211.30;27.55;;;19.80;79.00;;;;;;5047949;28;20036;-60
2021/08/17 04:22:30;;;;;;;165.10;23.10;;;19.80;79.20;;;;;;5050597;28;20089;-60
2021/08/17 04:24:55;;;;;;;155.57;23.92;;;19.80;79.20;;;;;;5070306;28;20932;-60
2021/08/17 04:27:21;;;;;;;166.15;24.63;;;19.80;79.30;;;;;;5063566;28;20127;-60
2021/08/17 04:29:46;;;;;;;141.13;23.17;;;19.80;79.20;;;;;;5045571;28;20036;-60
2021/08/17 04:32:12;;;;;;;141.65;23.52;;;19.70;79.30;;;;;;5046720;28;20107;-60
2021/08/17 04:34:38;;;;;;;141.27;22.38;;;19.70;79.40;;;;;;5031161;28;20127;-60
2021/08/17 04:37:03;;;;;;;143.15;23.25;;;19.70;79.50;;;;;;5041823;28;20041;-60
2021/08/17 04:39:29;;;;;;;123.82;22.55;;;19.70;79.60;;;;;;5047636;28;20044;-60
2021/08/17 04:41:54;;;;;;;118.45;22.10;;;19.70;79.60;;;;;;5031511;28;20388;-60
2021/08/17 04:44:20;;;;;;;121.05;20.35;;;19.70;79.60;;;;;;5027958;28;20075;-60
2021/08/17 04:46:45;;;;;;;109.15;21.27;;;19.70;79.80;;;;;;5027293;28;20075;-60
2021/08/17 04:49:11;;;;;;;109.40;20.70;;;19.70;79.80;;;;;;5063209;28;20102;-61
2021/08/17 04:51:36;;;;;;;134.10;22.27;;;19.70;79.60;;;;;;5076329;28;20422;-60
2021/08/17 04:54:02;;;;;;;153.88;24.05;;;19.60;79.70;;;;;;5060511;28;20028;-60
2021/08/17 04:56:27;;;;;;;127.72;22.02;;;19.70;79.80;;;;;;5047133;28;20036;-61
2021/08/17 04:58:54;;;;;;;109.40;18.30;;;19.70;79.80;;;;;;5043921;28;20480;-61
2021/08/17 05:01:19;;;;;;;119.47;21.27;;;19.70;79.80;;;;;;5047917;28;20097;-61
2021/08/17 05:03:45;;;;;;;80.25;18.73;;;19.60;79.80;;;;;;5049692;28;20364;-60
2021/08/17 05:06:10;;;;;;;87.07;19.92;;;19.70;79.90;;;;;;5045973;28;20039;-61
2021/08/17 05:08:38;;;;;;;89.47;19.55;;;19.70;80.00;;;;;;5049898;28;20047;-61
2021/08/17 05:11:03;;;;;;;67.03;17.92;;;19.60;79.90;;;;;;5013845;28;20437;-60
2021/08/17 05:13:29;;;;;;;68.22;18.33;;;19.60;79.80;;;;;;5059928;28;20115;-60
2021/08/17 05:15:54;;;;;;;89.03;19.02;;;19.60;80.00;;;;;;5070456;28;20036;-60
2021/08/17 05:18:20;;;;;;;66.80;16.27;;;19.60;80.10;;;;;;5042213;28;20808;-61
2021/08/17 05:20:45;;;;;;;90.75;18.55;;;19.60;80.20;;;;;;5050881;28;20040;-60
2021/08/17 05:23:11;;;;;;;62.92;16.88;;;19.60;80.30;;;;;;5026980;28;20020;-60
2021/08/17 05:25:36;;;;;;;62.47;16.63;;;19.60;80.40;;;;;;5063361;28;20120;-60
2021/08/17 05:28:02;;;;;;;65.75;16.77;;;19.60;80.40;;;;;;5064980;28;20066;-60
2021/08/17 05:30:27;;;;;;;86.82;17.20;;;19.60;80.50;;;;;;5027252;28;20037;-61
2021/08/17 05:32:53;;;;;;;50.05;16.73;;;19.50;80.50;;;;;;5041462;28;20087;-61
2021/08/17 05:35:18;;;;;;;61.38;15.93;;;19.50;80.50;;;;;;5042908;28;20020;-61
2021/08/17 05:37:44;;;;;;;54.80;16.98;;;19.50;80.60;;;;;;5043663;28;20044;-60
2021/08/17 05:40:10;;;;;;;63.95;15.77;;;19.50;80.50;;;;;;5034943;28;20060;-61
2021/08/17 05:42:36;;;;;;;53.80;16.45;;;19.50;80.50;;;;;;5028822;28;20063;-61
2021/08/17 05:45:01;;;;;;;54.70;16.00;;;19.50;80.50;;;;;;5038195;28;20064;-60
2021/08/17 05:47:27;;;;;;;55.55;15.48;;;19.50;80.60;;;;;;5065177;28;20021;-60
2021/08/17 05:49:53;;;;;;;55.17;15.88;;;19.50;80.60;;;;;;5064441;28;20472;-60
2021/08/17 05:52:18;;;;;;;37.15;15.05;;;19.50;80.50;;;;;;5044422;28;20048;-60
2021/08/17 05:54:44;;;;;;;48.20;15.65;;;19.50;80.50;;;;;;5033549;28;20785;-60
2021/08/17 05:57:09;;;;;;;62.13;15.32;;;19.50;80.40;;;;;;5043814;28;20175;-60
2021/08/17 05:59:35;;;;;;;37.90;15.35;;;19.50;80.50;;;;;;5063255;28;20040;-61
2021/08/17 06:02:01;;;;;;;42.42;15.23;;;19.50;80.40;;;;;;5041621;28;20021;-61
2021/08/17 06:04:27;;;;;;;33.45;15.18;;;19.50;80.40;;;;;;5017504;28;20104;-60
2021/08/17 06:06:53;;;;;;;37.47;13.90;;;19.50;80.40;;;;;;5038683;28;20358;-61
2021/08/17 06:09:19;;;;;;;34.65;13.55;;;19.50;80.40;;;;;;5056244;28;20045;-60
2021/08/17 06:11:45;;;;;;;37.33;14.77;;;19.50;80.40;;;;;;5056870;28;20028;-60
2021/08/17 06:14:11;;;;;;;36.78;14.10;;;19.50;80.50;;;;;;5067197;28;20189;-60
2021/08/17 06:16:36;;;;;;;33.95;14.30;;;19.50;80.50;;;;;;5059122;28;20081;-61
2021/08/17 06:19:02;;;;;;;34.75;13.48;;;19.50;81.20;;;;;;5058594;28;20063;-60
2021/08/17 06:21:28;;;;;;;26.23;13.93;;;19.50;80.70;;;;;;5057315;28;20136;-59
2021/08/17 06:23:53;;;;;;;27.98;12.93;;;19.50;80.70;;;;;;5017789;28;20034;-61
2021/08/17 06:26:19;;;;;;;29.13;13.82;;;19.50;80.70;;;;;;5037423;28;20075;-60
2021/08/17 06:28:45;;;;;;;29.17;13.63;;;19.50;80.70;;;;;;5042304;28;20021;-60
2021/08/17 06:31:12;;;;;;;32.33;13.98;;;19.50;80.70;;;;;;5036242;28;20496;-60
2021/08/17 06:33:38;;;;;;;28.83;13.15;;;19.40;80.60;;;;;;5034026;28;20064;-60
2021/08/17 06:36:03;;;;;;;30.23;14.32;;;19.50;80.70;;;;;;5056976;28;20129;-60
2021/08/17 06:38:29;;;;;;;22.95;14.20;;;19.50;80.60;;;;;;5064434;28;20047;-60
2021/08/17 06:40:54;;;;;;;26.67;13.57;;;19.50;80.70;;;;;;5065644;28;20048;-60
2021/08/17 06:43:20;;;;;;;26.85;12.90;;;19.50;80.70;;;;;;5065141;28;20035;-60
2021/08/17 06:45:45;;;;;;;29.85;13.10;;;19.50;80.70;;;;;;5061567;28;20136;-60
2021/08/17 06:48:11;;;;;;;34.25;14.02;;;19.60;80.80;;;;;;5058608;28;20385;-60
2021/08/17 06:50:36;;;;;;;28.95;13.68;;;19.60;80.80;;;;;;5053093;28;20047;-60
2021/08/17 06:53:02;;;;;;;30.08;14.30;;;19.60;80.80;;;;;;5061623;28;20025;-61
2021/08/17 06:55:27;;;;;;;32.78;13.38;;;19.50;80.70;;;;;;5044352;28;20519;-60
2021/08/17 06:57:53;;;;;;;29.67;13.30;;;19.60;80.80;;;;;;5041426;28;20028;-60
2021/08/17 07:00:18;;;;;;;38.85;14.65;;;19.60;80.70;;;;;;5059340;28;20439;-60
2021/08/17 07:02:44;;;;;;;55.47;17.08;;;19.60;80.60;;;;;;5025534;28;20468;-60
2021/08/17 07:05:10;;;;;;;58.53;16.95;;;19.60;80.50;;;;;;5053154;28;20033;-60
2021/08/17 07:07:35;;;;;;;27.70;12.85;;;19.60;80.30;;;;;;5036830;28;20025;-60
2021/08/17 07:10:02;;;;;;;35.45;14.20;;;19.60;79.50;;;;;;5066663;28;20142;-60
2021/08/17 07:12:28;;;;;;;27.23;13.00;;;19.50;79.40;;;;;;5059850;28;20047;-60
2021/08/17 07:14:53;;;;;;;32.58;13.02;;;19.40;79.60;;;;;;5060236;28;20032;-60
2021/08/17 07:17:19;;;;;;;30.95;13.32;;;19.40;79.70;;;;;;5044384;28;20032;-60
2021/08/17 07:19:44;;;;;;;65.40;15.77;;;19.30;79.80;;;;;;5046894;28;20123;-60
2021/08/17 07:22:10;;;;;;;43.95;13.63;;;19.30;80.00;;;;;;5042317;28;20029;-61
2021/08/17 07:24:35;;;;;;;33.78;13.27;;;19.30;79.80;;;;;;5043104;28;20056;-61
2021/08/17 07:27:01;;;;;;;56.00;15.15;;;19.30;79.70;;;;;;5065227;28;20042;-60
2021/08/17 07:29:26;;;;;;;53.25;14.68;;;19.20;79.50;;;;;;5043791;28;20511;-60
2021/08/17 07:31:52;;;;;;;46.08;14.25;;;19.20;79.40;;;;;;5057782;28;20094;-61
2021/08/17 07:34:17;;;;;;;38.05;13.82;;;19.20;79.50;;;;;;5062600;28;20119;-60
2021/08/17 07:36:43;;;;;;;38.83;14.63;;;19.20;79.60;;;;;;5029693;28;20106;-60
2021/08/17 07:39:09;;;;;;;45.05;13.48;;;19.10;79.50;;;;;;5063442;28;20114;-60
2021/08/17 07:41:35;;;;;;;49.95;13.40;;;19.20;79.60;;;;;;5066995;28;20364;-60
2021/08/17 07:44:01;;;;;;;25.05;12.43;;;19.10;79.70;;;;;;5043035;28;20033;-60
2021/08/17 07:46:27;;;;;;;39.38;13.25;;;19.10;79.50;;;;;;5034769;28;20025;-60
2021/08/17 07:48:52;;;;;;;49.45;14.15;;;19.10;79.40;;;;;;5061132;28;20033;-60
2021/08/17 07:51:18;;;;;;;38.38;14.10;;;19.10;79.20;;;;;;5041626;28;20519;-60
2021/08/17 07:53:44;;;;;;;44.00;14.02;;;19.20;79.20;;;;;;5036161;28;20462;-60
2021/08/17 07:56:09;;;;;;;39.65;13.35;;;19.20;79.10;;;;;;5039310;28;20515;-60
2021/08/17 07:58:35;;;;;;;48.50;13.75;;;19.20;79.00;;;;;;5061355;28;20041;-60
2021/08/17 08:01:00;;;;;;;50.88;13.52;;;19.20;79.00;;;;;;5063905;28;20148;-60
2021/08/17 08:03:26;;;;;;;36.25;13.55;;;19.20;78.90;;;;;;5027462;28;20067;-60
2021/08/17 08:05:51;;;;;;;41.78;13.93;;;19.10;78.80;;;;;;5057553;28;20164;-61
2021/08/17 08:08:17;;;;;;;39.05;14.32;;;19.10;78.90;;;;;;5042642;28;20041;-61
2021/08/17 08:10:42;;;;;;;45.08;14.73;;;19.20;78.60;;;;;;5037919;28;20622;-60
2021/08/17 08:13:08;;;;;;;40.20;13.90;;;19.10;78.70;;;;;;5004868;28;20411;-60
2021/08/17 08:15:33;;;;;;;30.77;14.20;;;19.20;78.90;;;;;;5022097;28;20097;-60
2021/08/17 08:17:59;;;;;;;53.80;15.10;;;19.20;78.90;;;;;;5045455;28;20475;-60
2021/08/17 08:20:25;;;;;;;47.10;15.75;;;19.20;78.50;;;;;;5028824;28;20059;-61
2021/08/17 08:22:50;;;;;;;62.20;15.85;;;19.20;78.30;;;;;;5039088;28;20613;-60
2021/08/17 08:25:16;;;;;;;62.13;16.92;;;19.20;78.20;;;;;;5057973;28;20112;-60
2021/08/17 08:27:42;;;;;;;67.70;15.23;;;19.20;78.20;;;;;;5042904;28;20434;-60
2021/08/17 08:30:08;;;;;;;59.60;15.05;;;19.20;78.20;;;;;;5050460;28;20025;-60
2021/08/17 08:32:34;;;;;;;46.97;15.20;;;19.30;78.30;;;;;;5039089;28;20060;-60
2021/08/17 08:35:00;;;;;;;51.88;15.63;;;19.30;78.20;;;;;;5049522;28;20086;-60
2021/08/17 08:37:26;;;;;;;58.70;16.13;;;19.30;78.10;;;;;;5040819;28;20539;-60
2021/08/17 08:39:53;;;;;;;51.83;15.90;;;19.30;78.00;;;;;;5059902;28;20055;-60
2021/08/17 08:42:20;;;;;;;53.00;15.50;;;19.30;77.90;;;;;;5041816;28;20135;-60
2021/08/17 08:44:45;;;;;;;44.60;15.32;;;19.30;77.80;;;;;;5034800;28;20033;-60
2021/08/17 08:47:11;;;;;;;38.28;15.27;;;19.30;77.70;;;;;;5057127;28;20024;-60
2021/08/17 08:49:36;;;;;;;54.40;16.45;;;19.30;77.60;;;;;;5057499;28;20024;-60
2021/08/17 08:52:02;;;;;;;34.47;15.40;;;19.40;77.30;;;;;;5023751;28;20518;-60
2021/08/17 08:54:28;;;;;;;41.97;15.07;;;19.40;77.10;;;;;;5040524;28;20498;-60
2021/08/17 08:56:53;;;;;;;50.30;16.98;;;19.40;76.60;;;;;;5040339;28;20029;-60
2021/08/17 08:59:19;;;;;;;57.60;17.10;;;19.40;76.40;;;;;;5038272;28;20040;-60
2021/08/17 09:01:47;;;;;;;48.60;16.45;;;19.40;76.10;;;;;;5020421;28;20068;-60
2021/08/17 09:04:16;;;;;;;45.28;15.40;;;19.50;76.00;;;;;;5039303;28;20396;-60
2021/08/17 09:06:53;;;;;;;38.97;16.27;;;19.50;76.10;;;;;;5056064;28;20036;-60
2021/08/17 09:09:18;;;;;;;62.47;17.98;;;19.60;75.80;;;;;;5038374;28;20216;-60
2021/08/17 09:11:49;;;;;;;53.83;16.98;;;19.50;75.30;;;;;;5055856;28;20606;-61
2021/08/17 09:14:19;;;;;;;38.55;15.40;;;19.50;75.00;;;;;;5038039;28;20021;-60
2021/08/17 09:16:44;;;;;;;33.92;15.57;;;19.60;74.60;;;;;;5056759;28;20084;-60
2021/08/17 09:19:23;;;;;;;35.28;15.82;;;19.50;74.60;;;;;;5037733;28;20036;-60
2021/08/17 09:21:49;;;;;;;42.60;15.50;;;19.50;74.70;;;;;;5036229;28;20052;-60
2021/08/17 09:24:23;;;;;;;41.03;17.33;;;19.50;74.50;;;;;;5026353;28;20036;-60
2021/08/17 09:26:56;;;;;;;43.55;16.42;;;19.50;74.10;;;;;;5033966;28;20124;-60
2021/08/17 09:29:24;;;;;;;33.90;15.02;;;19.50;73.90;;;;;;5035428;28;20253;-60
2021/08/17 09:31:51;;;;;;;44.85;16.05;;;19.50;73.90;;;;;;5029600;28;20050;-60
2021/08/17 09:34:17;;;;;;;39.50;15.95;;;19.50;74.10;;;;;;5039568;28;20039;-61
2021/08/17 09:36:43;;;;;;;43.67;16.98;;;19.50;74.30;;;;;;5056119;28;20365;-60
2021/08/17 09:39:09;;;;;;;45.13;16.10;;;19.60;74.50;;;;;;5043646;28;20041;-60
2021/08/17 09:41:35;;;;;;;36.33;16.17;;;19.60;74.00;;;;;;5053484;28;20036;-60
2021/08/17 09:44:05;;;;;;;46.42;16.95;;;19.60;73.90;;;;;;5049161;28;20021;-60
2021/08/17 09:46:35;;;;;;;45.55;15.95;;;19.70;73.80;;;;;;5010567;28;20032;-60
2021/08/17 09:49:26;;;;;;;32.90;15.65;;;19.70;73.80;;;;;;5058292;28;20029;-60
2021/08/17 09:51:51;;;;;;;46.75;15.98;;;19.70;73.90;;;;;;5037447;28;20036;-59
2021/08/17 09:54:18;;;;;;;46.22;18.60;;;19.80;73.80;;;;;;5015287;28;20037;-59
2021/08/17 09:56:54;;;;;;;37.10;17.38;;;19.70;74.00;;;;;;5032555;28;20144;-59
2021/08/17 09:59:19;;;;;;;36.47;16.73;;;19.80;74.00;;;;;;5021890;28;20203;-59
2021/08/17 10:01:45;;;;;;;51.67;17.48;;;19.80;74.80;;;;;;5015934;28;20342;-59
2021/08/17 10:04:11;;;;;;;39.97;16.88;;;19.80;74.40;;;;;;5050463;28;20959;-59
2021/08/17 10:06:36;;;;;;;52.90;17.27;;;19.90;74.30;;;;;;5052078;28;20037;-60
2021/08/17 10:09:02;;;;;;;52.22;17.92;;;19.90;74.30;;;;;;5046200;28;20393;-59
2021/08/17 10:11:27;;;;;;;50.60;17.55;;;19.90;74.10;;;;;;5053937;28;20028;-59
2021/08/17 10:13:53;;;;;;;56.53;18.33;;;20.00;74.10;;;;;;5022560;28;20148;-59
2021/08/17 10:16:19;;;;;;;47.83;17.70;;;20.00;74.00;;;;;;5039435;28;20059;-59
2021/08/17 10:18:44;;;;;;;46.00;18.42;;;20.10;73.80;;;;;;5023535;28;20166;-60
2021/08/17 10:21:10;;;;;;;43.03;16.70;;;20.10;73.70;;;;;;5037619;28;20136;-59
2021/08/17 10:23:39;;;;;;;57.25;16.85;;;20.20;73.70;;;;;;5036286;28;20105;-59
2021/08/17 10:26:04;;;;;;;38.78;16.27;;;20.20;73.30;;;;;;5007876;28;20032;-59
2021/08/17 10:28:31;;;;;;;43.20;17.00;;;20.20;72.90;;;;;;5055550;28;20035;-59
2021/08/17 10:30:58;;;;;;;43.75;17.00;;;20.10;72.60;;;;;;5055083;28;20028;-59
2021/08/17 10:33:46;;;;;;;48.25;17.15;;;20.20;72.90;;;;;;5046437;28;20056;-60
2021/08/17 10:36:11;;;;;;;50.03;17.02;;;20.20;73.00;;;;;;5053471;28;20050;-60
2021/08/17 10:38:42;;;;;;;47.90;17.65;;;20.20;73.00;;;;;;5047113;28;20067;-60
2021/08/17 10:41:08;;;;;;;61.42;19.58;;;20.20;72.90;;;;;;5038325;28;20081;-60
2021/08/17 10:43:33;;;;;;;50.97;19.13;;;20.30;72.70;;;;;;5019673;28;20131;-59
2021/08/17 10:46:00;;;;;;;70.03;18.75;;;20.30;72.50;;;;;;5052445;28;20043;-60
2021/08/17 10:48:45;;;;;;;45.85;17.63;;;20.40;72.20;;;;;;5036803;28;20017;-60
2021/08/17 10:51:31;;;;;;;58.92;19.88;;;20.40;71.90;;;;;;5056088;28;20387;-60
2021/08/17 10:53:59;;;;;;;65.32;19.48;;;20.40;71.90;;;;;;5039103;28;20105;-59
2021/08/17 10:56:32;;;;;;;57.80;19.23;;;20.50;72.10;;;;;;5060863;28;20111;-60
2021/08/17 10:58:58;;;;;;;99.70;21.48;;;20.60;71.60;;;;;;5037245;28;20043;-59
2021/08/17 11:01:35;;;;;;;110.90;23.10;;;20.60;71.10;;;;;;5038578;28;20055;-59
2021/08/17 11:04:56;;;;;;;54.97;19.48;;;20.70;71.00;;;;;;5063661;28;20107;-60
2021/08/17 11:07:32;;;;;;;64.10;19.65;;;20.70;70.70;;;;;;5053647;28;20040;-59
2021/08/17 11:09:59;;;;;;;48.63;19.17;;;20.70;70.80;;;;;;5045317;28;20780;-59
2021/08/17 11:12:32;;;;;;;58.70;19.08;;;20.80;70.40;;;;;;5066319;28;20024;-59
2021/08/17 11:14:58;;;;;;;63.83;18.60;;;20.80;70.50;;;;;;5044168;28;20119;-60
2021/08/17 11:17:23;;;;;;;50.08;18.45;;;20.80;70.50;;;;;;5044103;28;20117;-59
2021/08/17 11:19:50;;;;;;;64.72;18.38;;;20.90;70.60;;;;;;5039676;28;20087;-59
2021/08/17 11:22:18;;;;;;;66.55;19.80;;;20.90;70.40;;;;;;5037944;28;20513;-60
2021/08/17 11:24:48;;;;;;;53.90;19.10;;;20.90;70.10;;;;;;5021431;28;20036;-60
2021/08/17 11:27:15;;;;;;;65.13;20.25;;;20.90;69.60;;;;;;5059241;28;20012;-60
2021/08/17 11:29:45;;;;;;;83.35;21.30;;;20.90;70.10;;;;;;5056973;28;20036;-60
2021/08/17 11:32:33;;;;;;;80.20;21.13;;;20.90;70.00;;;;;;5040008;28;20050;-59
2021/08/17 11:35:04;;;;;;;85.95;22.27;;;20.90;70.10;;;;;;5058363;28;20060;-59
2021/08/17 11:37:30;;;;;;;97.85;21.98;;;21.00;70.20;;;;;;5039524;28;20036;-60
2021/08/17 11:39:57;;;;;;;62.30;19.80;;;21.00;70.00;;;;;;5056672;28;20429;-59
2021/08/17 11:42:25;;;;;;;234.90;31.45;;;21.00;70.00;;;;;;5041948;28;20119;-59
2021/08/17 11:44:54;;;;;;;76.65;20.40;;;21.10;70.00;;;;;;5022362;28;20031;-60
2021/08/17 11:47:20;;;;;;;61.95;19.05;;;21.10;69.50;;;;;;5057984;28;20106;-59
2021/08/17 11:49:47;;;;;;;58.92;18.83;;;21.20;69.30;;;;;;5045989;28;20044;-60
2021/08/17 11:52:20;;;;;;;58.33;19.05;;;21.20;69.50;;;;;;5042926;28;20074;-60
2021/08/17 11:54:50;;;;;;;57.75;18.20;;;21.20;69.20;;;;;;5055736;28;20025;-60
2021/08/17 11:57:28;;;;;;;53.97;18.25;;;21.30;69.00;;;;;;5056756;28;20687;-60
2021/08/17 11:59:54;;;;;;;76.80;20.38;;;21.30;68.80;;;;;;5055632;28;20032;-60
2021/08/17 12:02:22;;;;;;;63.35;19.23;;;21.30;68.90;;;;;;5021389;28;20448;-59
2021/08/17 12:04:49;;;;;;;61.40;19.45;;;21.30;69.10;;;;;;5051496;28;20052;-59
2021/08/17 12:07:15;;;;;;;61.88;19.85;;;21.40;68.80;;;;;;5044984;28;20506;-60
2021/08/17 12:09:42;;;;;;;53.95;17.60;;;21.40;68.40;;;;;;5042530;28;20036;-60
2021/08/17 12:12:08;;;;;;;51.95;18.00;;;21.40;68.40;;;;;;5042369;28;20589;-59
2021/08/17 12:14:34;;;;;;;42.38;16.58;;;21.40;68.30;;;;;;5059397;28;20048;-60
2021/08/17 12:17:00;;;;;;;42.95;17.25;;;21.40;67.70;;;;;;5043478;28;20110;-60
2021/08/17 12:19:25;;;;;;;63.42;17.70;;;21.40;68.00;;;;;;5020546;28;20066;-60
2021/08/17 12:21:51;;;;;;;48.00;17.83;;;21.40;67.70;;;;;;5042582;28;20035;-59
2021/08/17 12:24:27;;;;;;;43.10;16.75;;;21.40;67.70;;;;;;5021311;28;20029;-60
2021/08/17 12:26:54;;;;;;;56.63;17.08;;;21.40;67.80;;;;;;5012837;28;20151;-60
2021/08/17 12:29:23;;;;;;;54.05;17.50;;;21.50;67.70;;;;;;5045034;28;20490;-59